sensor_id;sensor_type;location;lat;lon;timestamp;temperature;humidity
30999;DHT22;20549;50.042;8.968;2022-12-16T00:01:19;-2.60;89.40
30999;DHT22;20549;50.042;8.968;2022-12-16T00:03:49;-2.60;89.50
30999;DHT22;20549;50.042;8.968;2022-12-16T00:06:12;-2.60;89.60
30999;DHT22;20549;50.042;8.968;2022-12-16T00:08:39;-2.60;89.60
30999;DHT22;20549;50.042;8.968;2022-12-16T00:11:06;-2.60;89.60
30999;DHT22;20549;50.042;8.968;2022-12-16T00:13:33;-2.50;89.60
30999;DHT22;20549;50.042;8.968;2022-12-16T00:15:59;-2.60;89.50
30999;DHT22;20549;50.042;8.968;2022-12-16T00:18:25;-2.60;89.50
30999;DHT22;20549;50.042;8.968;2022-12-16T00:20:52;-2.60;89.30
30999;DHT22;20549;50.042;8.968;2022-12-16T00:23:18;-2.60;89.30
30999;DHT22;20549;50.042;8.968;2022-12-16T00:25:45;-2.60;90.00
30999;DHT22;20549;50.042;8.968;2022-12-16T00:28:12;-2.60;89.20
30999;DHT22;20549;50.042;8.968;2022-12-16T00:30:38;-2.60;89.20
30999;DHT22;20549;50.042;8.968;2022-12-16T00:33:05;-2.60;89.20
30999;DHT22;20549;50.042;8.968;2022-12-16T00:35:31;-2.60;89.20
30999;DHT22;20549;50.042;8.968;2022-12-16T00:37:58;-2.70;89.20
30999;DHT22;20549;50.042;8.968;2022-12-16T00:40:25;-2.70;89.20
30999;DHT22;20549;50.042;8.968;2022-12-16T00:42:51;-2.70;89.20
30999;DHT22;20549;50.042;8.968;2022-12-16T00:45:18;-2.70;89.20
30999;DHT22;20549;50.042;8.968;2022-12-16T00:47:44;-2.70;89.30
30999;DHT22;20549;50.042;8.968;2022-12-16T00:50:11;-2.80;89.90
30999;DHT22;20549;50.042;8.968;2022-12-16T00:52:37;-2.70;88.50
30999;DHT22;20549;50.042;8.968;2022-12-16T00:55:04;-2.80;89.20
30999;DHT22;20549;50.042;8.968;2022-12-16T00:57:31;-2.80;89.30
30999;DHT22;20549;50.042;8.968;2022-12-16T00:59:57;-2.80;89.30
30999;DHT22;20549;50.042;8.968;2022-12-16T01:02:24;-2.80;89.40
30999;DHT22;20549;50.042;8.968;2022-12-16T01:04:50;-2.80;89.40
30999;DHT22;20549;50.042;8.968;2022-12-16T01:07:17;-2.80;89.40
30999;DHT22;20549;50.042;8.968;2022-12-16T01:09:44;-2.90;89.40
30999;DHT22;20549;50.042;8.968;2022-12-16T01:12:10;-2.80;89.50
30999;DHT22;20549;50.042;8.968;2022-12-16T01:14:37;-2.80;89.50
30999;DHT22;20549;50.042;8.968;2022-12-16T01:17:03;-2.90;89.50
30999;DHT22;20549;50.042;8.968;2022-12-16T01:19:30;-2.90;89.50
30999;DHT22;20549;50.042;8.968;2022-12-16T01:21:57;-2.90;89.40
30999;DHT22;20549;50.042;8.968;2022-12-16T01:24:23;-2.90;89.50
30999;DHT22;20549;50.042;8.968;2022-12-16T01:26:50;-2.90;89.50
30999;DHT22;20549;50.042;8.968;2022-12-16T01:29:16;-2.90;89.60
30999;DHT22;20549;50.042;8.968;2022-12-16T01:31:43;-2.90;89.60
30999;DHT22;20549;50.042;8.968;2022-12-16T01:34:09;-2.90;89.60
30999;DHT22;20549;50.042;8.968;2022-12-16T01:36:36;-3.00;89.50
30999;DHT22;20549;50.042;8.968;2022-12-16T01:39:03;-3.00;89.60
30999;DHT22;20549;50.042;8.968;2022-12-16T01:41:29;-3.00;89.60
30999;DHT22;20549;50.042;8.968;2022-12-16T01:44:14;-3.00;89.60
30999;DHT22;20549;50.042;8.968;2022-12-16T01:46:38;-3.00;89.60
30999;DHT22;20549;50.042;8.968;2022-12-16T01:49:09;-3.00;89.70
30999;DHT22;20549;50.042;8.968;2022-12-16T01:51:38;-3.00;89.60
30999;DHT22;20549;50.042;8.968;2022-12-16T01:54:47;-3.00;89.70
30999;DHT22;20549;50.042;8.968;2022-12-16T01:56:33;-3.10;89.60
30999;DHT22;20549;50.042;8.968;2022-12-16T01:58:59;-3.10;89.60
30999;DHT22;20549;50.042;8.968;2022-12-16T02:01:26;-3.10;89.70
30999;DHT22;20549;50.042;8.968;2022-12-16T02:03:53;-3.20;89.60
30999;DHT22;20549;50.042;8.968;2022-12-16T02:06:19;-3.20;89.60
30999;DHT22;20549;50.042;8.968;2022-12-16T02:08:45;-3.20;89.70
30999;DHT22;20549;50.042;8.968;2022-12-16T02:13:49;-3.20;89.60
30999;DHT22;20549;50.042;8.968;2022-12-16T02:24:51;-3.30;89.60
30999;DHT22;20549;50.042;8.968;2022-12-16T02:32:58;-3.40;89.60
30999;DHT22;20549;50.042;8.968;2022-12-16T02:35:27;-3.40;89.60
30999;DHT22;20549;50.042;8.968;2022-12-16T02:42:49;-3.50;89.60
30999;DHT22;20549;50.042;8.968;2022-12-16T02:45:17;-3.50;89.60
30999;DHT22;20549;50.042;8.968;2022-12-16T02:47:43;-3.50;89.60
30999;DHT22;20549;50.042;8.968;2022-12-16T02:50:32;-3.50;89.70
30999;DHT22;20549;50.042;8.968;2022-12-16T02:52:57;-3.50;89.70
30999;DHT22;20549;50.042;8.968;2022-12-16T02:55:27;-3.50;89.70
30999;DHT22;20549;50.042;8.968;2022-12-16T02:57:54;-3.60;89.70
30999;DHT22;20549;50.042;8.968;2022-12-16T03:00:18;-3.60;89.80
30999;DHT22;20549;50.042;8.968;2022-12-16T03:05:34;-3.60;89.90
30999;DHT22;20549;50.042;8.968;2022-12-16T03:08:04;-3.60;89.90
30999;DHT22;20549;50.042;8.968;2022-12-16T03:10:31;-3.70;89.90
30999;DHT22;20549;50.042;8.968;2022-12-16T03:12:57;-3.70;89.90
30999;DHT22;20549;50.042;8.968;2022-12-16T03:15:24;-3.70;89.90
30999;DHT22;20549;50.042;8.968;2022-12-16T03:17:50;-3.70;90.00
30999;DHT22;20549;50.042;8.968;2022-12-16T03:20:26;-3.70;90.00
30999;DHT22;20549;50.042;8.968;2022-12-16T03:22:53;-3.70;90.00
30999;DHT22;20549;50.042;8.968;2022-12-16T03:25:19;-3.70;90.00
30999;DHT22;20549;50.042;8.968;2022-12-16T03:28:09;-3.70;90.00
30999;DHT22;20549;50.042;8.968;2022-12-16T03:30:38;-3.80;90.10
30999;DHT22;20549;50.042;8.968;2022-12-16T03:33:04;-3.80;90.00
30999;DHT22;20549;50.042;8.968;2022-12-16T03:35:43;-3.80;90.00
30999;DHT22;20549;50.042;8.968;2022-12-16T03:37:59;-3.80;90.00
30999;DHT22;20549;50.042;8.968;2022-12-16T03:40:25;-3.80;90.00
30999;DHT22;20549;50.042;8.968;2022-12-16T03:42:52;-3.80;90.00
30999;DHT22;20549;50.042;8.968;2022-12-16T03:45:21;-3.90;90.00
30999;DHT22;20549;50.042;8.968;2022-12-16T03:47:51;-3.90;90.10
30999;DHT22;20549;50.042;8.968;2022-12-16T03:50:31;-3.90;90.00
30999;DHT22;20549;50.042;8.968;2022-12-16T03:52:47;-3.90;90.00
30999;DHT22;20549;50.042;8.968;2022-12-16T03:55:13;-3.90;90.00
30999;DHT22;20549;50.042;8.968;2022-12-16T03:57:40;-4.00;90.00
30999;DHT22;20549;50.042;8.968;2022-12-16T04:00:07;-4.00;90.00
30999;DHT22;20549;50.042;8.968;2022-12-16T04:02:33;-4.00;90.00
30999;DHT22;20549;50.042;8.968;2022-12-16T04:05:00;-4.00;90.10
30999;DHT22;20549;50.042;8.968;2022-12-16T04:07:26;-4.00;90.10
30999;DHT22;20549;50.042;8.968;2022-12-16T04:09:54;-4.00;90.10
30999;DHT22;20549;50.042;8.968;2022-12-16T04:12:21;-4.00;90.10
30999;DHT22;20549;50.042;8.968;2022-12-16T04:15:06;-4.00;90.20
30999;DHT22;20549;50.042;8.968;2022-12-16T04:17:50;-4.00;90.20
30999;DHT22;20549;50.042;8.968;2022-12-16T04:20:30;-4.10;90.10
30999;DHT22;20549;50.042;8.968;2022-12-16T04:23:13;-4.00;90.20
30999;DHT22;20549;50.042;8.968;2022-12-16T04:25:58;-4.10;90.30
30999;DHT22;20549;50.042;8.968;2022-12-16T04:28:25;-4.10;90.30
30999;DHT22;20549;50.042;8.968;2022-12-16T04:30:51;-4.10;90.30
30999;DHT22;20549;50.042;8.968;2022-12-16T04:33:18;-4.10;90.30
30999;DHT22;20549;50.042;8.968;2022-12-16T04:36:03;-4.10;90.30
30999;DHT22;20549;50.042;8.968;2022-12-16T04:38:47;-4.10;90.30
30999;DHT22;20549;50.042;8.968;2022-12-16T04:41:32;-4.10;90.30
30999;DHT22;20549;50.042;8.968;2022-12-16T04:44:16;-4.10;90.30
30999;DHT22;20549;50.042;8.968;2022-12-16T04:47:01;-4.10;90.30
30999;DHT22;20549;50.042;8.968;2022-12-16T04:49:45;-4.20;90.30
30999;DHT22;20549;50.042;8.968;2022-12-16T04:52:30;-4.20;90.30
30999;DHT22;20549;50.042;8.968;2022-12-16T04:55:15;-4.20;90.40
30999;DHT22;20549;50.042;8.968;2022-12-16T04:58:00;-4.20;90.40
30999;DHT22;20549;50.042;8.968;2022-12-16T05:00:45;-4.20;90.40
30999;DHT22;20549;50.042;8.968;2022-12-16T05:03:30;-4.20;90.40
30999;DHT22;20549;50.042;8.968;2022-12-16T05:06:14;-4.20;90.40
30999;DHT22;20549;50.042;8.968;2022-12-16T05:08:59;-4.30;90.40
30999;DHT22;20549;50.042;8.968;2022-12-16T05:11:43;-4.30;90.40
30999;DHT22;20549;50.042;8.968;2022-12-16T05:14:28;-4.30;90.40
30999;DHT22;20549;50.042;8.968;2022-12-16T05:17:13;-4.30;90.40
30999;DHT22;20549;50.042;8.968;2022-12-16T05:19:57;-4.30;90.40
30999;DHT22;20549;50.042;8.968;2022-12-16T05:22:42;-4.30;90.40
30999;DHT22;20549;50.042;8.968;2022-12-16T05:25:26;-4.30;90.40
30999;DHT22;20549;50.042;8.968;2022-12-16T05:28:11;-4.40;90.40
30999;DHT22;20549;50.042;8.968;2022-12-16T05:30:56;-4.40;90.40
30999;DHT22;20549;50.042;8.968;2022-12-16T05:33:40;-4.40;90.40
30999;DHT22;20549;50.042;8.968;2022-12-16T05:36:25;-4.40;90.40
30999;DHT22;20549;50.042;8.968;2022-12-16T05:39:10;-4.40;90.40
30999;DHT22;20549;50.042;8.968;2022-12-16T05:41:54;-4.40;90.40
30999;DHT22;20549;50.042;8.968;2022-12-16T05:44:39;-4.40;90.40
30999;DHT22;20549;50.042;8.968;2022-12-16T05:47:23;-4.40;90.40
30999;DHT22;20549;50.042;8.968;2022-12-16T05:50:08;-4.50;90.40
30999;DHT22;20549;50.042;8.968;2022-12-16T05:52:53;-4.50;90.40
30999;DHT22;20549;50.042;8.968;2022-12-16T05:55:38;-4.50;90.40
30999;DHT22;20549;50.042;8.968;2022-12-16T05:58:22;-4.50;90.50
30999;DHT22;20549;50.042;8.968;2022-12-16T06:01:07;-4.50;90.50
30999;DHT22;20549;50.042;8.968;2022-12-16T06:03:51;-4.50;90.50
30999;DHT22;20549;50.042;8.968;2022-12-16T06:06:26;-4.50;90.50
30999;DHT22;20549;50.042;8.968;2022-12-16T06:09:11;-4.50;90.50
30999;DHT22;20549;50.042;8.968;2022-12-16T06:11:56;-4.50;90.50
30999;DHT22;20549;50.042;8.968;2022-12-16T06:14:41;-4.50;90.50
30999;DHT22;20549;50.042;8.968;2022-12-16T06:17:25;-4.60;90.40
30999;DHT22;20549;50.042;8.968;2022-12-16T06:20:10;-4.60;90.50
30999;DHT22;20549;50.042;8.968;2022-12-16T06:22:54;-4.60;90.60
30999;DHT22;20549;50.042;8.968;2022-12-16T06:25:39;-4.60;90.50
30999;DHT22;20549;50.042;8.968;2022-12-16T06:28:24;-4.60;90.50
30999;DHT22;20549;50.042;8.968;2022-12-16T06:31:09;-4.60;90.50
30999;DHT22;20549;50.042;8.968;2022-12-16T06:33:54;-4.60;90.50
30999;DHT22;20549;50.042;8.968;2022-12-16T06:36:38;-4.70;90.40
30999;DHT22;20549;50.042;8.968;2022-12-16T06:39:23;-4.60;90.50
30999;DHT22;20549;50.042;8.968;2022-12-16T06:42:08;-4.70;90.50
30999;DHT22;20549;50.042;8.968;2022-12-16T06:44:52;-4.70;90.50
30999;DHT22;20549;50.042;8.968;2022-12-16T06:47:38;-4.70;90.60
30999;DHT22;20549;50.042;8.968;2022-12-16T06:50:22;-4.70;90.60
30999;DHT22;20549;50.042;8.968;2022-12-16T06:53:07;-4.70;90.60
30999;DHT22;20549;50.042;8.968;2022-12-16T06:55:51;-4.70;90.60
30999;DHT22;20549;50.042;8.968;2022-12-16T06:58:36;-4.80;90.60
30999;DHT22;20549;50.042;8.968;2022-12-16T07:01:20;-4.70;90.60
30999;DHT22;20549;50.042;8.968;2022-12-16T07:04:05;-4.80;90.60
30999;DHT22;20549;50.042;8.968;2022-12-16T07:06:50;-4.80;90.60
30999;DHT22;20549;50.042;8.968;2022-12-16T07:09:35;-4.80;90.60
30999;DHT22;20549;50.042;8.968;2022-12-16T07:12:19;-4.80;90.60
30999;DHT22;20549;50.042;8.968;2022-12-16T07:15:04;-4.90;90.60
30999;DHT22;20549;50.042;8.968;2022-12-16T07:17:49;-4.90;90.60
30999;DHT22;20549;50.042;8.968;2022-12-16T07:20:33;-4.90;90.70
30999;DHT22;20549;50.042;8.968;2022-12-16T07:23:18;-4.90;90.80
30999;DHT22;20549;50.042;8.968;2022-12-16T07:26:03;-4.90;90.80
30999;DHT22;20549;50.042;8.968;2022-12-16T07:28:47;-4.90;90.90
30999;DHT22;20549;50.042;8.968;2022-12-16T07:31:32;-4.90;90.90
30999;DHT22;20549;50.042;8.968;2022-12-16T07:34:17;-4.90;90.90
30999;DHT22;20549;50.042;8.968;2022-12-16T07:37:02;-5.00;90.80
30999;DHT22;20549;50.042;8.968;2022-12-16T07:39:46;-5.00;90.60
30999;DHT22;20549;50.042;8.968;2022-12-16T07:42:31;-5.00;90.60
30999;DHT22;20549;50.042;8.968;2022-12-16T07:45:16;-5.00;90.60
30999;DHT22;20549;50.042;8.968;2022-12-16T07:48:00;-5.00;90.50
30999;DHT22;20549;50.042;8.968;2022-12-16T07:50:45;-5.00;90.50
30999;DHT22;20549;50.042;8.968;2022-12-16T07:53:29;-5.00;90.50
30999;DHT22;20549;50.042;8.968;2022-12-16T07:56:14;-5.00;90.50
30999;DHT22;20549;50.042;8.968;2022-12-16T07:58:59;-5.00;90.60
30999;DHT22;20549;50.042;8.968;2022-12-16T08:01:44;-4.90;91.30
30999;DHT22;20549;50.042;8.968;2022-12-16T08:04:29;-4.70;92.40
30999;DHT22;20549;50.042;8.968;2022-12-16T08:07:14;-4.40;93.90
30999;DHT22;20549;50.042;8.968;2022-12-16T08:09:59;-4.10;93.80
30999;DHT22;20549;50.042;8.968;2022-12-16T08:12:43;-3.80;93.90
30999;DHT22;20549;50.042;8.968;2022-12-16T08:15:28;-3.60;93.50
30999;DHT22;20549;50.042;8.968;2022-12-16T08:18:12;-3.40;92.70
30999;DHT22;20549;50.042;8.968;2022-12-16T08:20:57;-3.20;91.80
30999;DHT22;20549;50.042;8.968;2022-12-16T08:23:42;-3.20;91.00
30999;DHT22;20549;50.042;8.968;2022-12-16T08:26:27;-3.10;90.50
30999;DHT22;20549;50.042;8.968;2022-12-16T08:29:11;-3.10;90.10
30999;DHT22;20549;50.042;8.968;2022-12-16T08:31:56;-3.10;89.60
30999;DHT22;20549;50.042;8.968;2022-12-16T08:34:41;-3.20;89.40
30999;DHT22;20549;50.042;8.968;2022-12-16T08:37:26;-3.20;89.60
30999;DHT22;20549;50.042;8.968;2022-12-16T08:40:10;-3.10;90.30
30999;DHT22;20549;50.042;8.968;2022-12-16T08:42:56;-2.90;91.30
30999;DHT22;20549;50.042;8.968;2022-12-16T08:45:41;-2.70;92.30
30999;DHT22;20549;50.042;8.968;2022-12-16T08:48:25;-2.50;92.30
30999;DHT22;20549;50.042;8.968;2022-12-16T08:51:09;-2.30;91.80
30999;DHT22;20549;50.042;8.968;2022-12-16T08:53:54;-2.10;91.30
30999;DHT22;20549;50.042;8.968;2022-12-16T08:56:39;-2.00;91.30
30999;DHT22;20549;50.042;8.968;2022-12-16T08:59:23;-1.90;91.20
30999;DHT22;20549;50.042;8.968;2022-12-16T09:02:09;-1.80;90.70
30999;DHT22;20549;50.042;8.968;2022-12-16T09:04:52;-1.80;90.20
30999;DHT22;20549;50.042;8.968;2022-12-16T09:07:37;-1.80;89.60
30999;DHT22;20549;50.042;8.968;2022-12-16T09:10:22;-1.80;89.10
30999;DHT22;20549;50.042;8.968;2022-12-16T09:13:11;-1.80;88.70
30999;DHT22;20549;50.042;8.968;2022-12-16T09:15:55;-1.80;88.70
30999;DHT22;20549;50.042;8.968;2022-12-16T09:18:39;-1.90;88.80
30999;DHT22;20549;50.042;8.968;2022-12-16T09:21:24;-1.90;89.00
30999;DHT22;20549;50.042;8.968;2022-12-16T09:24:09;-1.90;89.20
30999;DHT22;20549;50.042;8.968;2022-12-16T09:26:53;-1.90;89.50
30999;DHT22;20549;50.042;8.968;2022-12-16T09:29:38;-1.90;89.80
30999;DHT22;20549;50.042;8.968;2022-12-16T09:32:23;-1.90;90.10
30999;DHT22;20549;50.042;8.968;2022-12-16T09:35:08;-1.80;90.30
30999;DHT22;20549;50.042;8.968;2022-12-16T09:37:52;-1.80;90.50
30999;DHT22;20549;50.042;8.968;2022-12-16T09:40:37;-1.80;90.60
30999;DHT22;20549;50.042;8.968;2022-12-16T09:43:41;-1.70;90.70
30999;DHT22;20549;50.042;8.968;2022-12-16T09:46:47;-1.60;90.80
30999;DHT22;20549;50.042;8.968;2022-12-16T09:49:46;-1.60;90.80
30999;DHT22;20549;50.042;8.968;2022-12-16T09:52:35;-1.50;90.80
30999;DHT22;20549;50.042;8.968;2022-12-16T09:55:30;-1.40;90.80
30999;DHT22;20549;50.042;8.968;2022-12-16T09:58:11;-1.40;90.80
30999;DHT22;20549;50.042;8.968;2022-12-16T10:00:56;-1.30;90.80
30999;DHT22;20549;50.042;8.968;2022-12-16T10:03:40;-1.30;90.90
30999;DHT22;20549;50.042;8.968;2022-12-16T10:15:55;-1.00;91.10
30999;DHT22;20549;50.042;8.968;2022-12-16T10:18:51;-0.90;91.20
30999;DHT22;20549;50.042;8.968;2022-12-16T10:21:39;-0.90;91.20
30999;DHT22;20549;50.042;8.968;2022-12-16T10:24:29;-0.80;91.30
30999;DHT22;20549;50.042;8.968;2022-12-16T10:27:13;-0.70;91.40
30999;DHT22;20549;50.042;8.968;2022-12-16T10:29:57;-0.50;91.50
30999;DHT22;20549;50.042;8.968;2022-12-16T10:32:45;-0.50;91.50
30999;DHT22;20549;50.042;8.968;2022-12-16T10:35:31;-0.40;91.50
30999;DHT22;20549;50.042;8.968;2022-12-16T10:38:40;-0.30;91.50
30999;DHT22;20549;50.042;8.968;2022-12-16T10:41:24;-0.10;91.40
30999;DHT22;20549;50.042;8.968;2022-12-16T10:47:15;0.00;91.40
30999;DHT22;20549;50.042;8.968;2022-12-16T10:49:59;0.10;91.20
30999;DHT22;20549;50.042;8.968;2022-12-16T10:52:58;0.20;91.10
30999;DHT22;20549;50.042;8.968;2022-12-16T10:58:42;0.30;90.90
30999;DHT22;20549;50.042;8.968;2022-12-16T11:01:21;0.40;90.90
30999;DHT22;20549;50.042;8.968;2022-12-16T11:04:23;0.50;90.80
30999;DHT22;20549;50.042;8.968;2022-12-16T11:06:48;0.50;90.80
30999;DHT22;20549;50.042;8.968;2022-12-16T11:09:33;0.60;90.80
30999;DHT22;20549;50.042;8.968;2022-12-16T11:12:22;0.60;90.80
30999;DHT22;20549;50.042;8.968;2022-12-16T11:18:05;0.70;90.60
30999;DHT22;20549;50.042;8.968;2022-12-16T11:21:02;0.80;90.60
30999;DHT22;20549;50.042;8.968;2022-12-16T11:23:31;0.80;90.60
30999;DHT22;20549;50.042;8.968;2022-12-16T11:26:19;0.90;90.60
30999;DHT22;20549;50.042;8.968;2022-12-16T11:29:15;0.90;90.50
30999;DHT22;20549;50.042;8.968;2022-12-16T11:35:04;1.00;90.30
30999;DHT22;20549;50.042;8.968;2022-12-16T11:37:48;1.00;90.20
30999;DHT22;20549;50.042;8.968;2022-12-16T11:40:33;1.00;90.20
30999;DHT22;20549;50.042;8.968;2022-12-16T11:43:18;1.10;90.20
30999;DHT22;20549;50.042;8.968;2022-12-16T11:46:04;1.10;90.20
30999;DHT22;20549;50.042;8.968;2022-12-16T11:48:51;1.10;90.20
30999;DHT22;20549;50.042;8.968;2022-12-16T11:51:19;1.10;90.10
30999;DHT22;20549;50.042;8.968;2022-12-16T11:54:07;1.20;90.20
30999;DHT22;20549;50.042;8.968;2022-12-16T11:56:49;1.20;90.30
30999;DHT22;20549;50.042;8.968;2022-12-16T11:59:52;1.20;90.30
30999;DHT22;20549;50.042;8.968;2022-12-16T12:03:05;1.30;90.30
30999;DHT22;20549;50.042;8.968;2022-12-16T12:30:10;1.70;90.30
30999;DHT22;20549;50.042;8.968;2022-12-16T12:38:51;1.80;90.20
30999;DHT22;20549;50.042;8.968;2022-12-16T12:47:33;1.90;90.00
30999;DHT22;20549;50.042;8.968;2022-12-16T12:50:28;1.90;89.90
30999;DHT22;20549;50.042;8.968;2022-12-16T12:53:37;2.00;89.80
30999;DHT22;20549;50.042;8.968;2022-12-16T12:56:30;2.00;89.70
30999;DHT22;20549;50.042;8.968;2022-12-16T12:59:15;2.00;89.60
30999;DHT22;20549;50.042;8.968;2022-12-16T13:01:56;2.10;89.70
30999;DHT22;20549;50.042;8.968;2022-12-16T13:04:41;2.10;89.60
30999;DHT22;20549;50.042;8.968;2022-12-16T13:07:25;2.10;89.40
30999;DHT22;20549;50.042;8.968;2022-12-16T13:10:11;2.10;89.40
30999;DHT22;20549;50.042;8.968;2022-12-16T13:15:59;2.20;89.30
30999;DHT22;20549;50.042;8.968;2022-12-16T13:18:43;2.20;89.20
30999;DHT22;20549;50.042;8.968;2022-12-16T13:24:38;2.20;89.20
30999;DHT22;20549;50.042;8.968;2022-12-16T13:27:22;2.20;89.00
30999;DHT22;20549;50.042;8.968;2022-12-16T13:32:56;2.30;89.10
30999;DHT22;20549;50.042;8.968;2022-12-16T13:35:58;2.30;89.10
30999;DHT22;20549;50.042;8.968;2022-12-16T13:38:46;2.30;88.80
30999;DHT22;20549;50.042;8.968;2022-12-16T13:47:31;2.30;88.60
30999;DHT22;20549;50.042;8.968;2022-12-16T13:50:38;2.30;88.40
30999;DHT22;20549;50.042;8.968;2022-12-16T13:53:22;2.40;88.50
30999;DHT22;20549;50.042;8.968;2022-12-16T13:56:06;2.40;88.90
30999;DHT22;20549;50.042;8.968;2022-12-16T13:58:57;2.40;88.20
30999;DHT22;20549;50.042;8.968;2022-12-16T14:01:56;2.40;88.20
30999;DHT22;20549;50.042;8.968;2022-12-16T14:04:43;2.40;88.00
30999;DHT22;20549;50.042;8.968;2022-12-16T14:07:26;2.40;87.90
30999;DHT22;20549;50.042;8.968;2022-12-16T14:13:16;2.40;87.90
30999;DHT22;20549;50.042;8.968;2022-12-16T14:22:50;2.40;87.50
30999;DHT22;20549;50.042;8.968;2022-12-16T14:25:21;2.40;87.40
30999;DHT22;20549;50.042;8.968;2022-12-16T14:28:26;2.40;87.40
30999;DHT22;20549;50.042;8.968;2022-12-16T14:31:01;2.30;87.30
30999;DHT22;20549;50.042;8.968;2022-12-16T14:33:38;2.30;87.40
30999;DHT22;20549;50.042;8.968;2022-12-16T14:36:25;2.30;87.20
30999;DHT22;20549;50.042;8.968;2022-12-16T14:39:22;2.30;87.10
30999;DHT22;20549;50.042;8.968;2022-12-16T14:42:18;2.30;86.90
30999;DHT22;20549;50.042;8.968;2022-12-16T14:45:03;2.30;86.70
30999;DHT22;20549;50.042;8.968;2022-12-16T14:47:47;2.30;86.50
30999;DHT22;20549;50.042;8.968;2022-12-16T14:50:29;2.30;86.50
30999;DHT22;20549;50.042;8.968;2022-12-16T14:53:18;2.20;86.20
30999;DHT22;20549;50.042;8.968;2022-12-16T14:56:19;2.20;86.20
30999;DHT22;20549;50.042;8.968;2022-12-16T14:59:13;2.20;86.20
30999;DHT22;20549;50.042;8.968;2022-12-16T15:01:58;2.10;86.10
30999;DHT22;20549;50.042;8.968;2022-12-16T15:04:42;2.10;86.10
30999;DHT22;20549;50.042;8.968;2022-12-16T15:07:26;2.00;86.80
30999;DHT22;20549;50.042;8.968;2022-12-16T15:10:12;2.00;86.10
30999;DHT22;20549;50.042;8.968;2022-12-16T15:12:55;1.90;86.20
30999;DHT22;20549;50.042;8.968;2022-12-16T15:15:44;1.80;86.20
30999;DHT22;20549;50.042;8.968;2022-12-16T15:18:37;1.80;86.30
30999;DHT22;20549;50.042;8.968;2022-12-16T15:21:12;1.70;86.40
30999;DHT22;20549;50.042;8.968;2022-12-16T15:23:57;1.70;86.50
30999;DHT22;20549;50.042;8.968;2022-12-16T15:26:41;1.60;86.50
30999;DHT22;20549;50.042;8.968;2022-12-16T15:29:33;1.50;86.50
30999;DHT22;20549;50.042;8.968;2022-12-16T15:41:35;1.30;86.70
30999;DHT22;20549;50.042;8.968;2022-12-16T15:43:58;1.20;86.80
30999;DHT22;20549;50.042;8.968;2022-12-16T15:46:46;1.10;86.80
30999;DHT22;20549;50.042;8.968;2022-12-16T15:49:29;1.00;86.90
30999;DHT22;20549;50.042;8.968;2022-12-16T15:52:22;1.00;87.10
30999;DHT22;20549;50.042;8.968;2022-12-16T15:58:28;0.90;87.30
30999;DHT22;20549;50.042;8.968;2022-12-16T16:01:12;0.80;87.40
30999;DHT22;20549;50.042;8.968;2022-12-16T16:03:56;0.80;87.60
30999;DHT22;20549;50.042;8.968;2022-12-16T16:06:44;0.70;87.60
30999;DHT22;20549;50.042;8.968;2022-12-16T16:09:27;0.70;87.80
30999;DHT22;20549;50.042;8.968;2022-12-16T16:12:11;0.60;87.80
30999;DHT22;20549;50.042;8.968;2022-12-16T16:14:55;0.60;87.90
30999;DHT22;20549;50.042;8.968;2022-12-16T16:17:40;0.50;88.00
30999;DHT22;20549;50.042;8.968;2022-12-16T16:20:24;0.50;88.10
30999;DHT22;20549;50.042;8.968;2022-12-16T16:23:09;0.40;88.10
30999;DHT22;20549;50.042;8.968;2022-12-16T16:25:54;0.40;88.20
30999;DHT22;20549;50.042;8.968;2022-12-16T16:28:38;0.40;88.40
30999;DHT22;20549;50.042;8.968;2022-12-16T16:31:23;0.30;88.30
30999;DHT22;20549;50.042;8.968;2022-12-16T16:34:08;0.30;87.70
30999;DHT22;20549;50.042;8.968;2022-12-16T16:36:53;0.20;88.60
30999;DHT22;20549;50.042;8.968;2022-12-16T16:39:37;0.20;88.70
30999;DHT22;20549;50.042;8.968;2022-12-16T16:42:21;0.20;88.80
30999;DHT22;20549;50.042;8.968;2022-12-16T16:45:06;0.10;88.80
30999;DHT22;20549;50.042;8.968;2022-12-16T16:47:51;0.10;88.80
30999;DHT22;20549;50.042;8.968;2022-12-16T16:50:35;0.10;89.00
30999;DHT22;20549;50.042;8.968;2022-12-16T16:53:20;0.00;88.90
30999;DHT22;20549;50.042;8.968;2022-12-16T16:56:04;0.00;89.00
30999;DHT22;20549;50.042;8.968;2022-12-16T16:58:49;-0.10;89.00
30999;DHT22;20549;50.042;8.968;2022-12-16T17:01:34;-0.10;89.10
30999;DHT22;20549;50.042;8.968;2022-12-16T17:04:19;-0.10;89.80
30999;DHT22;20549;50.042;8.968;2022-12-16T17:07:03;-0.20;89.20
30999;DHT22;20549;50.042;8.968;2022-12-16T17:09:48;-0.20;89.30
30999;DHT22;20549;50.042;8.968;2022-12-16T17:12:33;-0.20;89.40
30999;DHT22;20549;50.042;8.968;2022-12-16T17:15:22;-0.30;89.40
30999;DHT22;20549;50.042;8.968;2022-12-16T17:18:05;-0.30;89.50
30999;DHT22;20549;50.042;8.968;2022-12-16T17:20:50;-0.40;89.50
30999;DHT22;20549;50.042;8.968;2022-12-16T17:23:35;-0.40;89.60
30999;DHT22;20549;50.042;8.968;2022-12-16T17:26:20;-0.40;89.70
30999;DHT22;20549;50.042;8.968;2022-12-16T17:29:05;-0.50;89.70
30999;DHT22;20549;50.042;8.968;2022-12-16T17:31:49;-0.50;89.80
30999;DHT22;20549;50.042;8.968;2022-12-16T17:34:34;-0.50;89.90
30999;DHT22;20549;50.042;8.968;2022-12-16T17:37:18;-0.50;89.90
30999;DHT22;20549;50.042;8.968;2022-12-16T17:40:03;-0.60;89.80
30999;DHT22;20549;50.042;8.968;2022-12-16T17:42:48;-0.60;89.90
30999;DHT22;20549;50.042;8.968;2022-12-16T17:45:32;-0.70;90.00
30999;DHT22;20549;50.042;8.968;2022-12-16T17:48:17;-0.70;90.00
30999;DHT22;20549;50.042;8.968;2022-12-16T17:51:02;-0.70;90.00
30999;DHT22;20549;50.042;8.968;2022-12-16T17:53:46;-0.80;90.10
30999;DHT22;20549;50.042;8.968;2022-12-16T17:56:31;-0.80;90.10
30999;DHT22;20549;50.042;8.968;2022-12-16T17:59:15;-0.80;90.10
30999;DHT22;20549;50.042;8.968;2022-12-16T18:02:00;-0.80;90.20
30999;DHT22;20549;50.042;8.968;2022-12-16T18:04:45;-0.90;90.20
30999;DHT22;20549;50.042;8.968;2022-12-16T18:07:29;-0.90;90.20
30999;DHT22;20549;50.042;8.968;2022-12-16T18:10:14;-0.90;90.20
30999;DHT22;20549;50.042;8.968;2022-12-16T18:12:59;-1.00;90.20
30999;DHT22;20549;50.042;8.968;2022-12-16T18:15:49;-1.00;90.20
30999;DHT22;20549;50.042;8.968;2022-12-16T18:18:28;-1.00;90.30
30999;DHT22;20549;50.042;8.968;2022-12-16T18:21:13;-1.10;90.20
30999;DHT22;20549;50.042;8.968;2022-12-16T18:23:57;-1.10;90.20
30999;DHT22;20549;50.042;8.968;2022-12-16T18:26:42;-1.10;90.30
30999;DHT22;20549;50.042;8.968;2022-12-16T18:29:27;-1.20;90.20
30999;DHT22;20549;50.042;8.968;2022-12-16T18:32:12;-1.20;90.30
30999;DHT22;20549;50.042;8.968;2022-12-16T18:34:56;-1.20;90.30
30999;DHT22;20549;50.042;8.968;2022-12-16T18:37:41;-1.30;90.30
30999;DHT22;20549;50.042;8.968;2022-12-16T18:40:26;-1.30;90.30
30999;DHT22;20549;50.042;8.968;2022-12-16T18:43:10;-1.30;90.40
30999;DHT22;20549;50.042;8.968;2022-12-16T18:45:55;-1.40;90.40
30999;DHT22;20549;50.042;8.968;2022-12-16T18:48:40;-1.40;90.50
30999;DHT22;20549;50.042;8.968;2022-12-16T18:51:24;-1.40;90.50
30999;DHT22;20549;50.042;8.968;2022-12-16T18:54:09;-1.40;90.50
30999;DHT22;20549;50.042;8.968;2022-12-16T18:56:38;-1.50;90.60
30999;DHT22;20549;50.042;8.968;2022-12-16T18:59:23;-1.50;90.60
30999;DHT22;20549;50.042;8.968;2022-12-16T19:02:08;-1.50;90.60